createdAt,value
2023-04-07T18:41:46.211Z,11.67
2023-04-07T18:44:13.554Z,11.63
2023-04-07T18:46:40.596Z,11.60
2023-04-07T18:49:07.523Z,11.59
2023-04-07T18:51:34.463Z,11.57
2023-04-07T18:54:01.362Z,11.52
2023-04-07T18:56:28.295Z,11.47
2023-04-07T18:58:55.221Z,11.47
2023-04-07T19:01:22.295Z,11.47
2023-04-07T19:03:49.756Z,11.47
2023-04-07T19:06:17.394Z,11.49
2023-04-07T19:08:44.507Z,11.50
2023-04-07T19:11:11.789Z,11.51
2023-04-07T19:13:38.678Z,11.47
2023-04-07T19:16:07.504Z,11.46
2023-04-07T19:18:34.579Z,11.49
2023-04-07T19:21:01.546Z,11.50
2023-04-07T19:23:30.516Z,11.48
2023-04-07T19:25:57.587Z,11.47
2023-04-07T19:28:24.485Z,11.45
2023-04-07T19:30:51.386Z,11.45
2023-04-07T19:33:18.211Z,11.45
2023-04-07T19:35:45.405Z,11.43
2023-04-07T19:38:12.191Z,11.40
2023-04-07T19:40:39.052Z,11.36
2023-04-07T19:43:07.221Z,11.32
2023-04-07T19:45:34.217Z,11.28
2023-04-07T19:48:01.287Z,11.25
2023-04-07T19:50:28.347Z,11.24
2023-04-07T19:52:55.218Z,11.23
2023-04-07T19:55:22.157Z,11.19
2023-04-07T19:57:49.055Z,11.13
2023-04-07T20:00:16.594Z,11.07
2023-04-07T20:02:43.578Z,11.01
2023-04-07T20:05:10.581Z,10.98
2023-04-07T20:07:37.538Z,10.96
2023-04-07T20:10:04.814Z,10.93
2023-04-07T20:12:31.801Z,10.92
2023-04-07T20:14:58.725Z,10.92
2023-04-07T20:17:25.681Z,10.94
2023-04-07T20:19:55.222Z,10.96
2023-04-07T20:22:22.827Z,10.96
2023-04-07T20:24:49.726Z,10.91
2023-04-07T20:27:16.662Z,10.87
2023-04-07T20:29:44.056Z,10.81
2023-04-07T20:32:10.906Z,10.77
2023-04-07T20:34:37.790Z,10.72
2023-04-07T20:37:04.615Z,10.67
2023-04-07T20:39:31.484Z,10.65
2023-04-07T20:41:58.795Z,10.60
2023-04-07T20:44:27.908Z,10.57
2023-04-07T20:46:54.935Z,10.54
2023-04-07T20:49:21.824Z,10.50
2023-04-07T20:51:48.850Z,10.47
2023-04-07T20:54:15.699Z,10.45
2023-04-07T20:56:44.584Z,10.43
2023-04-07T20:59:11.639Z,10.39
2023-04-07T21:01:38.727Z,10.36
2023-04-07T21:04:05.871Z,10.32
2023-04-07T21:06:33.173Z,10.30
2023-04-07T21:09:00.111Z,10.27
2023-04-07T21:11:27.374Z,10.28
2023-04-07T21:13:54.494Z,10.23
2023-04-07T21:16:21.817Z,10.23
2023-04-07T21:18:49.050Z,10.24
2023-04-07T21:21:16.618Z,10.23
2023-04-07T21:23:43.609Z,10.20
2023-04-07T21:26:10.645Z,10.15
2023-04-07T21:28:40.001Z,10.05
2023-04-07T21:31:07.845Z,10.02
2023-04-07T21:33:35.183Z,9.98
2023-04-07T21:36:03.829Z,9.92
2023-04-07T21:38:31.448Z,9.89
2023-04-07T21:40:58.505Z,9.83
2023-04-07T21:43:26.327Z,9.77
2023-04-07T21:45:53.540Z,9.71
2023-04-07T21:48:23.397Z,9.69
2023-04-07T21:50:53.671Z,9.65
2023-04-07T21:53:20.973Z,9.60
2023-04-07T21:55:48.052Z,9.60
2023-04-07T21:58:14.943Z,9.58
2023-04-07T22:00:41.842Z,9.58
2023-04-07T22:03:08.927Z,9.58
2023-04-07T22:05:36.012Z,9.58
2023-04-07T22:08:03.199Z,9.55
2023-04-07T22:10:30.514Z,9.50
2023-04-07T22:12:57.439Z,9.46
2023-04-07T22:15:24.475Z,9.39
2023-04-07T22:17:51.338Z,9.32
2023-04-07T22:20:18.278Z,9.29
2023-04-07T22:22:45.383Z,9.26
2023-04-07T22:25:12.234Z,9.26
2023-04-07T22:27:39.077Z,9.26
2023-04-07T22:30:09.878Z,9.28
2023-04-07T22:32:36.996Z,9.28
2023-04-07T22:35:04.038Z,9.29
2023-04-07T22:37:31.048Z,9.29
2023-04-07T22:39:57.882Z,9.31
2023-04-07T22:42:24.706Z,9.32
2023-04-07T22:44:51.613Z,9.34
2023-04-07T22:47:18.441Z,9.32
2023-04-07T22:49:45.467Z,9.31
2023-04-07T22:52:12.258Z,9.30
2023-04-07T22:54:39.052Z,9.29
2023-04-07T22:57:06.253Z,9.30
2023-04-07T22:59:33.073Z,9.30
2023-04-07T23:01:59.979Z,9.29
2023-04-07T23:04:27.215Z,9.29
2023-04-07T23:06:54.301Z,9.29
2023-04-07T23:09:21.312Z,9.30
2023-04-07T23:11:48.736Z,9.34
2023-04-07T23:14:16.102Z,9.37
2023-04-07T23:16:43.018Z,9.37
2023-04-07T23:19:11.778Z,9.32
2023-04-07T23:21:39.602Z,9.32
2023-04-07T23:24:06.474Z,9.32
2023-04-07T23:26:33.369Z,9.37
2023-04-07T23:29:00.216Z,9.35
2023-04-07T23:31:28.156Z,9.34
2023-04-07T23:33:55.130Z,9.38
2023-04-07T23:36:21.959Z,9.38
2023-04-07T23:38:49.095Z,9.40
2023-04-07T23:41:16.291Z,9.41
2023-04-07T23:43:43.209Z,9.42
2023-04-07T23:46:10.365Z,9.42
2023-04-07T23:48:37.238Z,9.42
2023-04-07T23:51:04.162Z,9.43
2023-04-07T23:53:31.055Z,9.49
2023-04-07T23:55:57.941Z,9.54
2023-04-07T23:58:24.802Z,9.57
